Time,TemperatureF,DewpointF,PressureIn,WindDirection,WindDirectionDegrees,WindSpeedMPH,WindSpeedGustMPH,Humidity,HourlyPrecipIn,Conditions,Clouds,dailyrainin,SoftwareType,DateUTC
2013-03-06 00:02:00,37.0,-99.9,29.89,East,99,4.0,8.0,-999,-99.99,,,-99.99,,2013-03-06 09:02:00,
2013-03-06 00:12:00,37.0,-99.9,29.90,East,82,4.0,8.0,-999,-99.99,,,-99.99,,2013-03-06 09:12:00,
2013-03-06 00:22:00,37.0,-99.9,29.90,East,86,4.0,7.0,-999,-99.99,,,-99.99,,2013-03-06 09:22:00,
2013-03-06 00:32:00,37.0,-99.9,29.89,East,82,3.0,6.0,-999,-99.99,,,-99.99,,2013-03-06 09:32:00,
2013-03-06 00:42:00,38.0,-99.9,29.89,NE,42,1.0,6.0,-999,-99.99,,,-99.99,,2013-03-06 09:42:00,
2013-03-06 00:52:00,38.0,-99.9,29.89,NE,45,3.0,6.0,-999,-99.99,,,-99.99,,2013-03-06 09:52:00,
2013-03-06 01:02:00,37.0,-99.9,29.89,NE,46,2.0,5.0,-999,-99.99,,,-99.99,,2013-03-06 10:02:00,
2013-03-06 01:11:00,37.0,-99.9,29.89,NNE,24,4.0,5.0,-999,-99.99,,,-99.99,,2013-03-06 10:11:00,
2013-03-06 01:22:00,37.0,-99.9,29.89,NNE,24,4.0,7.0,-999,-99.99,,,-99.99,,2013-03-06 10:22:00,
2013-03-06 01:32:00,37.0,-99.9,29.89,NE,41,1.0,5.0,-999,-99.99,,,-99.99,,2013-03-06 10:32:00,
2013-03-06 01:42:00,37.0,-99.9,29.89,ENE,78,0.0,3.0,-999,-99.99,,,-99.99,,2013-03-06 10:42:00,
2013-03-06 01:52:00,37.0,-99.9,29.89,SW,217,0.0,1.0,-999,-99.99,,,-99.99,,2013-03-06 10:52:00,
2013-03-06 02:02:00,37.0,-99.9,29.89,WNW,282,-999.0,1.0,-999,-99.99,,,-99.99,,2013-03-06 11:02:00,
2013-03-06 02:11:00,37.0,-99.9,29.88,ENE,59,2.0,4.0,-999,-99.99,,,-99.99,,2013-03-06 11:11:00,
2013-03-06 02:23:00,37.0,-99.9,29.88,East,88,3.0,5.0,-999,-99.99,,,-99.99,,2013-03-06 11:23:00,
2013-03-06 02:32:00,37.0,-99.9,29.88,East,86,4.0,5.0,-999,-99.99,,,-99.99,,2013-03-06 11:32:00,
2013-03-06 02:43:00,37.0,-99.9,29.88,East,93,4.0,7.0,-999,-99.99,,,-99.99,,2013-03-06 11:43:00,
2013-03-06 02:52:00,37.0,-99.9,29.88,East,88,4.0,7.0,-999,-99.99,,,-99.99,,2013-03-06 11:52:00,
2013-03-06 03:02:00,37.0,-99.9,29.88,East,87,2.0,5.0,-999,-99.99,,,-99.99,,2013-03-06 12:02:00,
2013-03-06 03:12:00,36.0,-99.9,29.87,East,91,3.0,5.0,-999,-99.99,,,-99.99,,2013-03-06 12:12:00,
2013-03-06 03:22:00,36.0,-99.9,29.87,SW,224,0.0,2.0,-999,-99.99,,,-99.99,,2013-03-06 12:22:00,
2013-03-06 03:33:00,36.0,-99.9,29.87,WNW,295,4.0,4.0,-999,-99.99,,,-99.99,,2013-03-06 12:33:00,
2013-03-06 03:43:00,37.0,-99.9,29.87,ESE,104,1.0,2.0,-999,-99.99,,,-99.99,,2013-03-06 12:43:00,
2013-03-06 03:53:00,36.0,-99.9,29.87,NW,313,-999.0,1.0,-999,-99.99,,,-99.99,,2013-03-06 12:53:00,
2013-03-06 04:02:00,36.0,-99.9,29.86,North,7,1.0,2.0,-999,-99.99,,,-99.99,,2013-03-06 13:02:00,
2013-03-06 04:12:00,36.0,-99.9,29.86,NNE,13,0.0,1.0,-999,-99.99,,,-99.99,,2013-03-06 13:12:00,
2013-03-06 04:22:00,36.0,-99.9,29.86,NNE,19,-999.0,1.0,-999,-99.99,,,-99.99,,2013-03-06 13:22:00,
2013-03-06 04:32:00,36.0,-99.9,29.86,SE,137,2.0,3.0,-999,-99.99,,,-99.99,,2013-03-06 13:32:00,
2013-03-06 04:42:00,36.0,-99.9,29.86,NE,41,2.0,2.0,-999,-99.99,,,-99.99,,2013-03-06 13:42:00,
2013-03-06 04:52:00,35.0,-99.9,29.86,SE,131,1.0,3.0,-999,-99.99,,,-99.99,,2013-03-06 13:52:00,
2013-03-06 05:02:00,35.0,-99.9,29.86,WSW,246,0.0,3.0,-999,-99.99,,,-99.99,,2013-03-06 14:02:00,
2013-03-06 05:11:00,35.0,-99.9,29.85,North,-999,-999.0,-999.0,-999,-99.99,,,-99.99,,2013-03-06 14:11:00,
2013-03-06 05:22:00,35.0,-99.9,29.85,WSW,256,2.0,4.0,-999,-99.99,,,-99.99,,2013-03-06 14:22:00,
2013-03-06 05:32:00,35.0,-99.9,29.85,NNE,21,0.0,3.0,-999,-99.99,,,-99.99,,2013-03-06 14:32:00,
2013-03-06 05:42:00,36.0,-99.9,29.85,SE,141,2.0,3.0,-999,-99.99,,,-99.99,,2013-03-06 14:42:00,
2013-03-06 05:53:00,36.0,-99.9,29.85,ENE,70,1.0,3.0,-999,-99.99,,,-99.99,,2013-03-06 14:53:00,
2013-03-06 06:02:00,35.0,-99.9,29.84,NW,320,1.0,2.0,-999,-99.99,,,-99.99,,2013-03-06 15:02:00,
2013-03-06 06:12:00,35.0,-99.9,29.85,NW,318,2.0,4.0,-999,-99.99,,,-99.99,,2013-03-06 15:12:00,
2013-03-06 06:22:00,35.0,-99.9,29.85,NE,36,1.0,2.0,-999,-99.99,,,-99.99,,2013-03-06 15:22:00,
2013-03-06 06:32:00,35.0,-99.9,29.85,NNE,26,-999.0,1.0,-999,-99.99,,,-99.99,,2013-03-06 15:32:00,
2013-03-06 06:42:00,35.0,-99.9,29.85,North,-999,-999.0,-999.0,-999,-99.99,,,-99.99,,2013-03-06 15:42:00,
2013-03-06 06:52:00,35.0,-99.9,29.85,WNW,295,-999.0,0.0,-999,-99.99,,,-99.99,,2013-03-06 15:52:00,
2013-03-06 07:02:00,34.0,-99.9,29.85,North,-999,-999.0,-999.0,-999,-99.99,,,-99.99,,2013-03-06 16:02:00,
2013-03-06 07:12:00,35.0,-99.9,29.85,North,6,-999.0,0.0,-999,-99.99,,,-99.99,,2013-03-06 16:12:00,
2013-03-06 07:22:00,34.0,-99.9,29.85,North,-999,-999.0,-999.0,-999,-99.99,,,-99.99,,2013-03-06 16:22:00,
2013-03-06 07:32:00,34.0,-99.9,29.85,South,174,0.0,1.0,-999,-99.99,,,-99.99,,2013-03-06 16:32:00,
2013-03-06 07:42:00,35.0,-99.9,29.85,SSE,161,-999.0,1.0,-999,-99.99,,,-99.99,,2013-03-06 16:42:00,
2013-03-06 07:52:00,34.0,-99.9,29.85,SSE,148,0.0,1.0,-999,-99.99,,,-99.99,,2013-03-06 16:52:00,
2013-03-06 08:01:00,35.0,-99.9,29.85,ENE,59,0.0,1.0,-999,-99.99,,,-99.99,,2013-03-06 17:01:00,
2013-03-06 08:11:00,34.0,-99.9,29.85,SSW,213,-999.0,2.0,-999,-99.99,,,-99.99,,2013-03-06 17:11:00,
2013-03-06 08:22:00,34.0,-99.9,29.85,ESE,105,0.0,2.0,-999,-99.99,,,-99.99,,2013-03-06 17:22:00,
2013-03-06 08:32:00,34.0,-99.9,29.85,WNW,284,1.0,4.0,-999,-99.99,,,-99.99,,2013-03-06 17:32:00,
2013-03-06 08:42:00,34.0,-99.9,29.85,SE,143,-999.0,1.0,-999,-99.99,,,-99.99,,2013-03-06 17:42:00,
2013-03-06 08:53:00,35.0,-99.9,29.85,North,4,-999.0,2.0,-999,-99.99,,,-99.99,,2013-03-06 17:53:00,
2013-03-06 09:02:00,34.0,-99.9,29.85,South,171,2.0,2.0,-999,-99.99,,,-99.99,,2013-03-06 18:02:00,
2013-03-06 09:29:00,34.0,-99.9,29.85,South,174,-999.0,1.0,-999,-99.99,,,-99.99,,2013-03-06 18:29:00,
2013-03-06 09:42:00,36.0,-99.9,29.85,ENE,73,1.0,2.0,-999,-99.99,,,-99.99,,2013-03-06 18:42:00,
2013-03-06 09:53:00,36.0,-99.9,29.85,North,-999,-999.0,-999.0,-999,-99.99,,,-99.99,,2013-03-06 18:53:00,
2013-03-06 10:02:00,37.0,-99.9,29.85,WNW,302,2.0,4.0,-999,-99.99,,,-99.99,,2013-03-06 19:02:00,
2013-03-06 10:11:00,37.0,-99.9,29.85,WSW,246,2.0,4.0,-999,-99.99,,,-99.99,,2013-03-06 19:11:00,
2013-03-06 10:22:00,38.0,-99.9,29.85,ENE,60,1.0,3.0,-999,-99.99,,,-99.99,,2013-03-06 19:22:00,
2013-03-06 10:33:00,38.0,-99.9,29.85,ENE,77,0.0,2.0,-999,-99.99,,,-99.99,,2013-03-06 19:33:00,
2013-03-06 10:43:00,38.0,-99.9,29.86,South,182,1.0,4.0,-999,-99.99,,,-99.99,,2013-03-06 19:43:00,
2013-03-06 10:53:00,38.0,-99.9,29.86,SE,143,2.0,3.0,-999,-99.99,,,-99.99,,2013-03-06 19:53:00,
2013-03-06 11:02:00,38.0,-99.9,29.86,SE,124,0.0,2.0,-999,-99.99,,,-99.99,,2013-03-06 20:02:00,
2013-03-06 11:12:00,39.0,-99.9,29.86,SW,235,-999.0,1.0,-999,-99.99,,,-99.99,,2013-03-06 20:12:00,
2013-03-06 11:23:00,39.0,-99.9,29.86,WNW,300,1.0,2.0,-999,-99.99,,,-99.99,,2013-03-06 20:23:00,
2013-03-06 11:33:00,39.0,-99.9,29.85,NW,318,2.0,3.0,-999,-99.99,,,-99.99,,2013-03-06 20:33:00,
2013-03-06 11:43:00,40.0,-99.9,29.85,WNW,302,3.0,4.0,-999,-99.99,,,-99.99,,2013-03-06 20:43:00,
2013-03-06 11:53:00,41.0,-99.9,29.84,WNW,303,2.0,3.0,-999,-99.99,,,-99.99,,2013-03-06 20:53:00,
2013-03-06 12:02:00,41.0,-99.9,29.84,East,87,1.0,5.0,-999,-99.99,,,-99.99,,2013-03-06 21:02:00,
2013-03-06 12:12:00,40.0,-99.9,29.84,South,178,1.0,2.0,-999,-99.99,,,-99.99,,2013-03-06 21:12:00,
2013-03-06 12:22:00,40.0,-99.9,29.84,SE,146,4.0,5.0,-999,-99.99,,,-99.99,,2013-03-06 21:22:00,
2013-03-06 12:33:00,41.0,-99.9,29.84,SE,134,2.0,6.0,-999,-99.99,,,-99.99,,2013-03-06 21:33:00,
2013-03-06 12:43:00,41.0,-99.9,29.85,ESE,122,3.0,9.0,-999,-99.99,,,-99.99,,2013-03-06 21:43:00,
2013-03-06 12:52:00,42.0,-99.9,29.84,SE,128,2.0,7.0,-999,-99.99,,,-99.99,,2013-03-06 21:52:00,
2013-03-06 13:02:00,41.0,-99.9,29.85,SSE,155,3.0,5.0,-999,-99.99,,,-99.99,,2013-03-06 22:02:00,
2013-03-06 13:12:00,41.0,-99.9,29.84,SSE,149,7.0,11.0,-999,-99.99,,,-99.99,,2013-03-06 22:12:00,
2013-03-06 13:22:00,41.0,-99.9,29.83,SE,145,5.0,9.0,-999,-99.99,,,-99.99,,2013-03-06 22:22:00,
2013-03-06 13:32:00,40.0,-99.9,29.83,ESE,123,5.0,8.0,-999,-99.99,,,-99.99,,2013-03-06 22:32:00,
2013-03-06 13:42:00,40.0,-99.9,29.82,SE,128,4.0,7.0,-999,-99.99,,,-99.99,,2013-03-06 22:42:00,
2013-03-06 13:52:00,40.0,-99.9,29.81,SE,142,3.0,8.0,-999,-99.99,,,-99.99,,2013-03-06 22:52:00,
2013-03-06 14:02:00,40.0,-99.9,29.81,SE,143,2.0,6.0,-999,-99.99,,,-99.99,,2013-03-06 23:02:00,
2013-03-06 14:11:00,40.0,-99.9,29.81,SSE,148,5.0,9.0,-999,-99.99,,,-99.99,,2013-03-06 23:11:00,
2013-03-06 14:22:00,40.0,-99.9,29.81,ESE,111,3.0,6.0,-999,-99.99,,,-99.99,,2013-03-06 23:22:00,
2013-03-06 14:32:00,40.0,-99.9,29.81,ESE,118,3.0,7.0,-999,-99.99,,,-99.99,,2013-03-06 23:32:00,
2013-03-06 14:42:00,40.0,-99.9,29.81,SE,135,4.0,6.0,-999,-99.99,,,-99.99,,2013-03-06 23:42:00,
2013-03-06 14:52:00,40.0,-99.9,29.81,SSE,154,10.0,15.0,-999,-99.99,,,-99.99,,2013-03-06 23:52:00,
2013-03-06 15:02:00,40.0,-99.9,29.82,SE,139,8.0,12.0,-999,-99.99,,,-99.99,,2013-03-07 00:02:00,
2013-03-06 15:11:00,40.0,-99.9,29.81,SSE,147,7.0,11.0,-999,-99.99,,,-99.99,,2013-03-07 00:11:00,
2013-03-06 15:22:00,40.0,-99.9,29.80,SSE,166,13.0,16.0,-999,-99.99,,,-99.99,,2013-03-07 00:22:00,
2013-03-06 15:32:00,41.0,-99.9,29.80,SSE,162,13.0,17.0,-999,-99.99,,,-99.99,,2013-03-07 00:32:00,
2013-03-06 15:42:00,41.0,-99.9,29.80,SSE,156,11.0,15.0,-999,-99.99,,,-99.99,,2013-03-07 00:42:00,
2013-03-06 15:52:00,42.0,-99.9,29.79,SSE,150,10.0,16.0,-999,-99.99,,,-99.99,,2013-03-07 00:52:00,
2013-03-06 16:02:00,41.0,-99.9,29.79,SE,142,11.0,20.0,-999,-99.99,,,-99.99,,2013-03-07 01:02:00,
2013-03-06 16:12:00,41.0,-99.9,29.79,SSE,148,10.0,14.0,-999,-99.99,,,-99.99,,2013-03-07 01:12:00,
2013-03-06 16:22:00,41.0,-99.9,29.79,SE,143,9.0,12.0,-999,-99.99,,,-99.99,,2013-03-07 01:22:00,
2013-03-06 16:32:00,40.0,-99.9,29.78,SE,146,9.0,14.0,-999,-99.99,,,-99.99,,2013-03-07 01:32:00,
2013-03-06 16:42:00,40.0,-99.9,29.78,SE,146,7.0,11.0,-999,-99.99,,,-99.99,,2013-03-07 01:42:00,
2013-03-06 16:52:00,40.0,-99.9,29.78,ESE,111,5.0,10.0,-999,-99.99,,,-99.99,,2013-03-07 01:52:00,
2013-03-06 17:01:00,40.0,-99.9,29.78,SE,137,4.0,8.0,-999,-99.99,,,-99.99,,2013-03-07 02:01:00,
2013-03-06 17:11:00,39.0,-99.9,29.77,SE,127,5.0,7.0,-999,-99.99,,,-99.99,,2013-03-07 02:11:00,
2013-03-06 17:22:00,39.0,-99.9,29.76,SSE,161,2.0,4.0,-999,-99.99,,,-99.99,,2013-03-07 02:22:00,
2013-03-06 17:32:00,39.0,-99.9,29.76,SE,145,2.0,6.0,-999,-99.99,,,-99.99,,2013-03-07 02:32:00,
2013-03-06 17:42:00,39.0,-99.9,29.76,SE,145,2.0,6.0,-999,-99.99,,,-99.99,,2013-03-07 02:42:00,
2013-03-06 17:52:00,39.0,-99.9,29.76,SE,145,2.0,6.0,-999,-99.99,,,-99.99,,2013-03-07 02:52:00,
2013-03-06 18:02:00,38.0,-99.9,29.75,SSW,208,0.0,1.0,-999,-99.99,,,-99.99,,2013-03-07 03:02:00,
2013-03-06 18:12:00,38.0,-99.9,29.75,West,259,2.0,2.0,-999,-99.99,,,-99.99,,2013-03-07 03:12:00,
2013-03-06 18:22:00,38.0,-99.9,29.75,West,280,3.0,4.0,-999,-99.99,,,-99.99,,2013-03-07 03:22:00,
2013-03-06 18:32:00,38.0,-99.9,29.74,West,268,2.0,4.0,-999,-99.99,,,-99.99,,2013-03-07 03:32:00,
2013-03-06 18:42:00,38.0,-99.9,29.74,West,272,2.0,3.0,-999,-99.99,,,-99.99,,2013-03-07 03:42:00,
2013-03-06 18:52:00,38.0,-99.9,29.73,West,279,-999.0,2.0,-999,-99.99,,,-99.99,,2013-03-07 03:52:00,
2013-03-06 19:02:00,38.0,-99.9,29.73,NNW,334,2.0,5.0,-999,-99.99,,,-99.99,,2013-03-07 04:02:00,
2013-03-06 19:12:00,39.0,-99.9,29.73,NE,50,2.0,7.0,-999,-99.99,,,-99.99,,2013-03-07 04:12:00,
2013-03-06 19:22:00,38.0,-99.9,29.72,ENE,57,3.0,10.0,-999,-99.99,,,-99.99,,2013-03-07 04:22:00,
2013-03-06 19:32:00,38.0,-99.9,29.72,East,89,2.0,8.0,-999,-99.99,,,-99.99,,2013-03-07 04:32:00,
2013-03-06 19:42:00,38.0,-99.9,29.72,ESE,115,1.0,7.0,-999,-99.99,,,-99.99,,2013-03-07 04:42:00,
2013-03-06 19:52:00,39.0,-99.9,29.71,NE,55,6.0,11.0,-999,-99.99,,,-99.99,,2013-03-07 04:52:00,
2013-03-06 20:02:00,39.0,-99.9,29.71,ENE,73,5.0,11.0,-999,-99.99,,,-99.99,,2013-03-07 05:02:00,
2013-03-06 20:12:00,39.0,-99.9,29.72,East,91,4.0,9.0,-999,-99.99,,,-99.99,,2013-03-07 05:12:00,
2013-03-06 20:23:00,38.0,-99.9,29.71,SSW,195,1.0,6.0,-999,-99.99,,,-99.99,,2013-03-07 05:23:00,
2013-03-06 20:32:00,38.0,-99.9,29.71,NNW,328,1.0,6.0,-999,-99.99,,,-99.99,,2013-03-07 05:32:00,
2013-03-06 20:42:00,38.0,-99.9,29.70,ESE,120,3.0,6.0,-999,-99.99,,,-99.99,,2013-03-07 05:42:00,
2013-03-06 20:53:00,39.0,-99.9,29.70,SE,142,6.0,11.0,-999,-99.99,,,-99.99,,2013-03-07 05:53:00,
2013-03-06 21:02:00,39.0,-99.9,29.70,SSE,153,5.0,11.0,-999,-99.99,,,-99.99,,2013-03-07 06:02:00,
2013-03-06 21:11:00,39.0,-99.9,29.70,SE,129,2.0,9.0,-999,-99.99,,,-99.99,,2013-03-07 06:11:00,
2013-03-06 21:22:00,38.0,-99.9,29.70,SE,141,5.0,11.0,-999,-99.99,,,-99.99,,2013-03-07 06:22:00,
2013-03-06 21:32:00,38.0,-99.9,29.70,SE,136,5.0,12.0,-999,-99.99,,,-99.99,,2013-03-07 06:32:00,
2013-03-06 21:42:00,38.0,-99.9,29.69,SE,130,4.0,11.0,-999,-99.99,,,-99.99,,2013-03-07 06:42:00,
2013-03-06 21:52:00,38.0,-99.9,29.69,East,86,3.0,7.0,-999,-99.99,,,-99.99,,2013-03-07 06:52:00,
2013-03-06 22:02:00,38.0,-99.9,29.69,NE,54,3.0,9.0,-999,-99.99,,,-99.99,,2013-03-07 07:02:00,
2013-03-06 22:11:00,38.0,-99.9,29.67,NE,39,4.0,12.0,-999,-99.99,,,-99.99,,2013-03-07 07:11:00,
2013-03-06 22:22:00,38.0,-99.9,29.67,ESE,103,2.0,8.0,-999,-99.99,,,-99.99,,2013-03-07 07:22:00,
2013-03-06 22:32:00,38.0,-99.9,29.67,NNE,30,3.0,10.0,-999,-99.99,,,-99.99,,2013-03-07 07:32:00,
2013-03-06 22:43:00,38.0,-99.9,29.66,NNE,17,2.0,11.0,-999,-99.99,,,-99.99,,2013-03-07 07:43:00,
2013-03-06 22:53:00,38.0,-99.9,29.65,North,9,4.0,13.0,-999,-99.99,,,-99.99,,2013-03-07 07:53:00,
2013-03-06 23:03:00,38.0,-99.9,29.65,NNW,339,2.0,9.0,-999,-99.99,,,-99.99,,2013-03-07 08:03:00,
2013-03-06 23:12:00,38.0,-99.9,29.65,NNE,25,4.0,9.0,-999,-99.99,,,-99.99,,2013-03-07 08:12:00,
2013-03-06 23:23:00,38.0,-99.9,29.65,ENE,77,3.0,13.0,-999,-99.99,,,-99.99,,2013-03-07 08:23:00,
2013-03-06 23:34:00,38.0,-99.9,29.65,ESE,122,7.0,15.0,-999,-99.99,,,-99.99,,2013-03-07 08:34:00,
2013-03-06 23:45:00,38.0,-99.9,29.63,ESE,111,9.0,17.0,-999,-99.99,,,-99.99,,2013-03-07 08:45:00,
2013-03-06 23:54:00,38.0,-99.9,29.63,ESE,111,4.0,16.0,-999,-99.99,,,-99.99,,2013-03-07 08:54:00,